sensor_id;sensor_type;location;lat;lon;timestamp;P1;durP1;ratioP1;P2;durP2;ratioP2
79706;SDS011;69200;53.612;-2.416;2023-08-06T00:00:44;5.78;;;2.13;;
79706;SDS011;69200;53.612;-2.416;2023-08-06T00:03:10;8.18;;;1.77;;
79706;SDS011;69200;53.612;-2.416;2023-08-06T00:05:35;5.72;;;2.25;;
79706;SDS011;69200;53.612;-2.416;2023-08-06T00:08:00;7.40;;;1.80;;
79706;SDS011;69200;53.612;-2.416;2023-08-06T00:10:26;7.38;;;2.25;;
79706;SDS011;69200;53.612;-2.416;2023-08-06T00:12:51;6.97;;;2.30;;
79706;SDS011;69200;53.612;-2.416;2023-08-06T00:15:17;9.60;;;2.35;;
79706;SDS011;69200;53.612;-2.416;2023-08-06T00:17:42;5.78;;;2.28;;
79706;SDS011;69200;53.612;-2.416;2023-08-06T00:20:08;5.05;;;1.90;;
79706;SDS011;69200;53.612;-2.416;2023-08-06T00:22:34;7.97;;;2.25;;
79706;SDS011;69200;53.612;-2.416;2023-08-06T00:25:01;7.45;;;2.13;;
79706;SDS011;69200;53.612;-2.416;2023-08-06T00:27:27;6.85;;;2.38;;
79706;SDS011;69200;53.612;-2.416;2023-08-06T00:29:52;4.93;;;2.05;;
79706;SDS011;69200;53.612;-2.416;2023-08-06T00:32:18;7.50;;;2.45;;
79706;SDS011;69200;53.612;-2.416;2023-08-06T00:34:43;4.93;;;1.73;;
79706;SDS011;69200;53.612;-2.416;2023-08-06T00:37:08;5.43;;;1.85;;
79706;SDS011;69200;53.612;-2.416;2023-08-06T00:39:34;5.32;;;2.00;;
79706;SDS011;69200;53.612;-2.416;2023-08-06T00:41:59;4.32;;;1.45;;
79706;SDS011;69200;53.612;-2.416;2023-08-06T00:44:25;6.45;;;2.20;;
79706;SDS011;69200;53.612;-2.416;2023-08-06T00:46:50;9.13;;;2.10;;
79706;SDS011;69200;53.612;-2.416;2023-08-06T00:49:15;6.05;;;2.00;;
79706;SDS011;69200;53.612;-2.416;2023-08-06T00:51:41;6.53;;;2.03;;
79706;SDS011;69200;53.612;-2.416;2023-08-06T00:54:08;4.53;;;1.77;;
79706;SDS011;69200;53.612;-2.416;2023-08-06T00:56:34;7.25;;;2.05;;
79706;SDS011;69200;53.612;-2.416;2023-08-06T00:59:03;6.30;;;2.15;;
79706;SDS011;69200;53.612;-2.416;2023-08-06T01:01:30;6.00;;;1.73;;
79706;SDS011;69200;53.612;-2.416;2023-08-06T01:03:56;7.50;;;2.00;;
79706;SDS011;69200;53.612;-2.416;2023-08-06T01:06:25;6.85;;;2.00;;
79706;SDS011;69200;53.612;-2.416;2023-08-06T01:09:21;6.40;;;2.30;;
79706;SDS011;69200;53.612;-2.416;2023-08-06T01:12:08;5.80;;;2.47;;
79706;SDS011;69200;53.612;-2.416;2023-08-06T01:17:23;5.38;;;1.67;;
79706;SDS011;69200;53.612;-2.416;2023-08-06T01:19:49;5.45;;;1.90;;
79706;SDS011;69200;53.612;-2.416;2023-08-06T01:22:14;5.57;;;1.90;;
79706;SDS011;69200;53.612;-2.416;2023-08-06T01:24:40;5.65;;;1.90;;
79706;SDS011;69200;53.612;-2.416;2023-08-06T01:27:11;7.65;;;2.40;;
79706;SDS011;69200;53.612;-2.416;2023-08-06T01:29:49;6.05;;;2.30;;
79706;SDS011;69200;53.612;-2.416;2023-08-06T01:32:24;5.47;;;2.40;;
79706;SDS011;69200;53.612;-2.416;2023-08-06T01:34:51;7.30;;;2.40;;
79706;SDS011;69200;53.612;-2.416;2023-08-06T01:37:18;7.25;;;2.42;;
79706;SDS011;69200;53.612;-2.416;2023-08-06T01:39:44;11.77;;;1.90;;
79706;SDS011;69200;53.612;-2.416;2023-08-06T01:42:09;7.90;;;2.08;;
79706;SDS011;69200;53.612;-2.416;2023-08-06T01:44:35;8.05;;;2.55;;
79706;SDS011;69200;53.612;-2.416;2023-08-06T01:47:00;7.30;;;2.40;;
79706;SDS011;69200;53.612;-2.416;2023-08-06T01:49:25;8.57;;;2.38;;
79706;SDS011;69200;53.612;-2.416;2023-08-06T01:51:51;5.85;;;2.15;;
79706;SDS011;69200;53.612;-2.416;2023-08-06T01:54:16;6.28;;;2.10;;
79706;SDS011;69200;53.612;-2.416;2023-08-06T01:56:41;7.68;;;2.17;;
79706;SDS011;69200;53.612;-2.416;2023-08-06T01:59:07;6.53;;;2.20;;
79706;SDS011;69200;53.612;-2.416;2023-08-06T02:01:32;6.88;;;2.15;;
79706;SDS011;69200;53.612;-2.416;2023-08-06T02:03:58;10.00;;;2.30;;
79706;SDS011;69200;53.612;-2.416;2023-08-06T02:06:23;8.80;;;2.42;;
79706;SDS011;69200;53.612;-2.416;2023-08-06T02:08:48;7.63;;;1.90;;
79706;SDS011;69200;53.612;-2.416;2023-08-06T02:11:14;6.40;;;2.40;;
79706;SDS011;69200;53.612;-2.416;2023-08-06T02:13:39;6.80;;;2.15;;
79706;SDS011;69200;53.612;-2.416;2023-08-06T02:16:06;10.20;;;2.70;;
79706;SDS011;69200;53.612;-2.416;2023-08-06T02:18:33;8.07;;;2.38;;
79706;SDS011;69200;53.612;-2.416;2023-08-06T02:20:59;6.05;;;1.98;;
79706;SDS011;69200;53.612;-2.416;2023-08-06T02:23:25;6.78;;;2.20;;
79706;SDS011;69200;53.612;-2.416;2023-08-06T02:26:03;5.35;;;2.05;;
79706;SDS011;69200;53.612;-2.416;2023-08-06T02:28:30;5.32;;;2.03;;
79706;SDS011;69200;53.612;-2.416;2023-08-06T02:30:56;5.40;;;2.13;;
79706;SDS011;69200;53.612;-2.416;2023-08-06T02:33:22;6.07;;;2.25;;
79706;SDS011;69200;53.612;-2.416;2023-08-06T02:35:48;7.22;;;2.13;;
79706;SDS011;69200;53.612;-2.416;2023-08-06T02:38:13;5.35;;;2.22;;
79706;SDS011;69200;53.612;-2.416;2023-08-06T02:40:45;5.63;;;2.20;;
79706;SDS011;69200;53.612;-2.416;2023-08-06T02:43:11;7.63;;;2.10;;
79706;SDS011;69200;53.612;-2.416;2023-08-06T02:45:37;9.32;;;2.55;;
79706;SDS011;69200;53.612;-2.416;2023-08-06T02:48:03;7.57;;;2.50;;
79706;SDS011;69200;53.612;-2.416;2023-08-06T02:50:28;8.98;;;2.15;;
79706;SDS011;69200;53.612;-2.416;2023-08-06T02:52:54;6.38;;;2.00;;
79706;SDS011;69200;53.612;-2.416;2023-08-06T02:55:19;5.50;;;2.15;;
79706;SDS011;69200;53.612;-2.416;2023-08-06T02:57:45;6.45;;;2.60;;
79706;SDS011;69200;53.612;-2.416;2023-08-06T03:00:10;5.82;;;2.13;;
79706;SDS011;69200;53.612;-2.416;2023-08-06T03:02:36;6.43;;;1.85;;
79706;SDS011;69200;53.612;-2.416;2023-08-06T03:05:02;5.18;;;1.98;;
79706;SDS011;69200;53.612;-2.416;2023-08-06T03:07:28;7.25;;;2.45;;
79706;SDS011;69200;53.612;-2.416;2023-08-06T03:09:54;6.38;;;2.17;;
79706;SDS011;69200;53.612;-2.416;2023-08-06T03:12:19;7.45;;;2.20;;
79706;SDS011;69200;53.612;-2.416;2023-08-06T03:14:44;7.40;;;2.38;;
79706;SDS011;69200;53.612;-2.416;2023-08-06T03:17:10;6.53;;;2.10;;
79706;SDS011;69200;53.612;-2.416;2023-08-06T03:19:35;7.78;;;2.25;;
79706;SDS011;69200;53.612;-2.416;2023-08-06T03:22:00;6.18;;;1.73;;
79706;SDS011;69200;53.612;-2.416;2023-08-06T03:24:26;7.30;;;2.63;;
79706;SDS011;69200;53.612;-2.416;2023-08-06T03:26:51;6.15;;;2.05;;
79706;SDS011;69200;53.612;-2.416;2023-08-06T03:29:17;6.78;;;2.30;;
79706;SDS011;69200;53.612;-2.416;2023-08-06T03:31:42;5.53;;;1.90;;
79706;SDS011;69200;53.612;-2.416;2023-08-06T03:34:07;6.45;;;2.25;;
79706;SDS011;69200;53.612;-2.416;2023-08-06T03:36:33;4.90;;;1.90;;
79706;SDS011;69200;53.612;-2.416;2023-08-06T03:38:58;5.55;;;2.08;;
79706;SDS011;69200;53.612;-2.416;2023-08-06T03:41:23;7.03;;;2.15;;
79706;SDS011;69200;53.612;-2.416;2023-08-06T03:43:49;5.88;;;1.95;;
79706;SDS011;69200;53.612;-2.416;2023-08-06T03:46:14;6.85;;;1.92;;
79706;SDS011;69200;53.612;-2.416;2023-08-06T03:48:39;7.90;;;1.77;;
79706;SDS011;69200;53.612;-2.416;2023-08-06T03:51:05;7.57;;;2.20;;
79706;SDS011;69200;53.612;-2.416;2023-08-06T03:53:30;5.28;;;2.03;;
79706;SDS011;69200;53.612;-2.416;2023-08-06T03:55:55;6.10;;;2.10;;
79706;SDS011;69200;53.612;-2.416;2023-08-06T03:58:24;5.20;;;2.13;;
79706;SDS011;69200;53.612;-2.416;2023-08-06T04:00:57;9.68;;;2.20;;
79706;SDS011;69200;53.612;-2.416;2023-08-06T04:03:26;8.93;;;2.15;;
79706;SDS011;69200;53.612;-2.416;2023-08-06T04:05:52;5.07;;;1.90;;
79706;SDS011;69200;53.612;-2.416;2023-08-06T04:08:17;6.55;;;2.20;;
79706;SDS011;69200;53.612;-2.416;2023-08-06T04:10:43;6.00;;;2.15;;
79706;SDS011;69200;53.612;-2.416;2023-08-06T04:13:08;6.10;;;2.10;;
79706;SDS011;69200;53.612;-2.416;2023-08-06T04:15:34;7.72;;;1.90;;
79706;SDS011;69200;53.612;-2.416;2023-08-06T04:17:59;5.70;;;1.92;;
79706;SDS011;69200;53.612;-2.416;2023-08-06T04:20:25;6.47;;;2.70;;
79706;SDS011;69200;53.612;-2.416;2023-08-06T04:22:50;8.02;;;2.17;;
79706;SDS011;69200;53.612;-2.416;2023-08-06T04:25:15;5.70;;;1.98;;
79706;SDS011;69200;53.612;-2.416;2023-08-06T04:27:49;6.07;;;2.28;;
79706;SDS011;69200;53.612;-2.416;2023-08-06T04:30:14;6.50;;;1.85;;
79706;SDS011;69200;53.612;-2.416;2023-08-06T04:32:40;5.43;;;2.03;;
79706;SDS011;69200;53.612;-2.416;2023-08-06T04:35:06;9.60;;;2.10;;
79706;SDS011;69200;53.612;-2.416;2023-08-06T04:37:32;5.75;;;1.98;;
79706;SDS011;69200;53.612;-2.416;2023-08-06T04:39:57;6.80;;;1.80;;
79706;SDS011;69200;53.612;-2.416;2023-08-06T04:42:23;5.63;;;2.03;;
79706;SDS011;69200;53.612;-2.416;2023-08-06T04:44:51;7.75;;;2.53;;
79706;SDS011;69200;53.612;-2.416;2023-08-06T04:47:16;5.72;;;1.88;;
79706;SDS011;69200;53.612;-2.416;2023-08-06T04:49:42;7.00;;;1.95;;
79706;SDS011;69200;53.612;-2.416;2023-08-06T04:52:08;4.40;;;1.60;;
79706;SDS011;69200;53.612;-2.416;2023-08-06T04:54:33;7.32;;;1.98;;
79706;SDS011;69200;53.612;-2.416;2023-08-06T04:57:01;4.82;;;1.88;;
79706;SDS011;69200;53.612;-2.416;2023-08-06T04:59:27;5.72;;;2.28;;
79706;SDS011;69200;53.612;-2.416;2023-08-06T05:01:52;7.45;;;2.40;;
79706;SDS011;69200;53.612;-2.416;2023-08-06T05:04:17;5.43;;;1.92;;
79706;SDS011;69200;53.612;-2.416;2023-08-06T05:06:43;5.82;;;1.92;;
79706;SDS011;69200;53.612;-2.416;2023-08-06T05:09:08;5.10;;;1.85;;
79706;SDS011;69200;53.612;-2.416;2023-08-06T05:11:33;6.20;;;2.08;;
79706;SDS011;69200;53.612;-2.416;2023-08-06T05:13:59;6.50;;;2.03;;
79706;SDS011;69200;53.612;-2.416;2023-08-06T05:16:24;5.85;;;2.10;;
79706;SDS011;69200;53.612;-2.416;2023-08-06T05:18:49;6.10;;;2.05;;
79706;SDS011;69200;53.612;-2.416;2023-08-06T05:21:15;5.53;;;1.95;;
79706;SDS011;69200;53.612;-2.416;2023-08-06T05:23:41;5.97;;;2.22;;
79706;SDS011;69200;53.612;-2.416;2023-08-06T05:26:07;6.57;;;2.10;;
79706;SDS011;69200;53.612;-2.416;2023-08-06T05:28:32;6.43;;;1.98;;
79706;SDS011;69200;53.612;-2.416;2023-08-06T05:30:58;6.32;;;1.70;;
79706;SDS011;69200;53.612;-2.416;2023-08-06T05:33:23;6.55;;;1.70;;
79706;SDS011;69200;53.612;-2.416;2023-08-06T05:35:49;5.18;;;1.77;;
79706;SDS011;69200;53.612;-2.416;2023-08-06T05:38:14;5.82;;;1.90;;
79706;SDS011;69200;53.612;-2.416;2023-08-06T05:40:42;4.40;;;1.80;;
79706;SDS011;69200;53.612;-2.416;2023-08-06T05:43:07;5.22;;;1.90;;
79706;SDS011;69200;53.612;-2.416;2023-08-06T05:45:33;6.68;;;1.75;;
79706;SDS011;69200;53.612;-2.416;2023-08-06T05:47:58;5.97;;;2.13;;
79706;SDS011;69200;53.612;-2.416;2023-08-06T05:50:24;5.70;;;1.60;;
79706;SDS011;69200;53.612;-2.416;2023-08-06T05:52:49;4.88;;;1.83;;
79706;SDS011;69200;53.612;-2.416;2023-08-06T05:55:15;9.18;;;2.15;;
79706;SDS011;69200;53.612;-2.416;2023-08-06T05:57:40;6.72;;;2.25;;
79706;SDS011;69200;53.612;-2.416;2023-08-06T06:00:07;4.95;;;1.70;;
79706;SDS011;69200;53.612;-2.416;2023-08-06T06:02:33;5.63;;;1.70;;
79706;SDS011;69200;53.612;-2.416;2023-08-06T06:04:58;5.50;;;1.90;;
79706;SDS011;69200;53.612;-2.416;2023-08-06T06:07:24;5.35;;;1.90;;
79706;SDS011;69200;53.612;-2.416;2023-08-06T06:09:49;5.60;;;2.10;;
79706;SDS011;69200;53.612;-2.416;2023-08-06T06:12:14;8.40;;;2.00;;
79706;SDS011;69200;53.612;-2.416;2023-08-06T06:14:40;5.70;;;2.03;;
79706;SDS011;69200;53.612;-2.416;2023-08-06T06:17:05;6.25;;;2.00;;
79706;SDS011;69200;53.612;-2.416;2023-08-06T06:19:31;6.05;;;1.65;;
79706;SDS011;69200;53.612;-2.416;2023-08-06T06:21:56;5.85;;;1.60;;
79706;SDS011;69200;53.612;-2.416;2023-08-06T06:24:22;8.15;;;2.15;;
79706;SDS011;69200;53.612;-2.416;2023-08-06T06:26:48;5.38;;;1.90;;
79706;SDS011;69200;53.612;-2.416;2023-08-06T06:29:13;7.22;;;1.80;;
79706;SDS011;69200;53.612;-2.416;2023-08-06T06:31:38;4.28;;;1.33;;
79706;SDS011;69200;53.612;-2.416;2023-08-06T06:34:04;4.43;;;1.70;;
79706;SDS011;69200;53.612;-2.416;2023-08-06T06:36:29;5.85;;;1.92;;
79706;SDS011;69200;53.612;-2.416;2023-08-06T06:38:55;5.70;;;1.58;;
79706;SDS011;69200;53.612;-2.416;2023-08-06T06:41:20;6.47;;;1.92;;
79706;SDS011;69200;53.612;-2.416;2023-08-06T06:43:45;5.40;;;1.67;;
79706;SDS011;69200;53.612;-2.416;2023-08-06T06:46:11;5.35;;;1.77;;
79706;SDS011;69200;53.612;-2.416;2023-08-06T06:48:36;4.80;;;1.73;;
79706;SDS011;69200;53.612;-2.416;2023-08-06T06:51:01;7.40;;;1.90;;
79706;SDS011;69200;53.612;-2.416;2023-08-06T06:53:28;5.57;;;2.03;;
79706;SDS011;69200;53.612;-2.416;2023-08-06T06:55:53;5.38;;;1.77;;
79706;SDS011;69200;53.612;-2.416;2023-08-06T06:58:29;5.70;;;1.70;;
79706;SDS011;69200;53.612;-2.416;2023-08-06T07:00:55;5.50;;;1.75;;
79706;SDS011;69200;53.612;-2.416;2023-08-06T07:03:21;5.15;;;1.65;;
79706;SDS011;69200;53.612;-2.416;2023-08-06T07:05:46;6.60;;;1.73;;
79706;SDS011;69200;53.612;-2.416;2023-08-06T07:08:12;7.13;;;1.95;;
79706;SDS011;69200;53.612;-2.416;2023-08-06T07:10:37;4.82;;;1.55;;
79706;SDS011;69200;53.612;-2.416;2023-08-06T07:13:03;4.97;;;1.73;;
79706;SDS011;69200;53.612;-2.416;2023-08-06T07:15:29;5.28;;;1.80;;
79706;SDS011;69200;53.612;-2.416;2023-08-06T07:17:54;8.77;;;1.95;;
79706;SDS011;69200;53.612;-2.416;2023-08-06T07:20:20;4.93;;;1.70;;
79706;SDS011;69200;53.612;-2.416;2023-08-06T07:22:45;4.88;;;1.70;;
79706;SDS011;69200;53.612;-2.416;2023-08-06T07:25:11;5.25;;;1.88;;
79706;SDS011;69200;53.612;-2.416;2023-08-06T07:27:36;5.93;;;1.67;;
79706;SDS011;69200;53.612;-2.416;2023-08-06T07:30:02;7.15;;;1.70;;
79706;SDS011;69200;53.612;-2.416;2023-08-06T07:32:28;5.07;;;1.58;;
79706;SDS011;69200;53.612;-2.416;2023-08-06T07:34:53;4.32;;;1.58;;
79706;SDS011;69200;53.612;-2.416;2023-08-06T07:37:25;5.95;;;1.70;;
79706;SDS011;69200;53.612;-2.416;2023-08-06T07:39:53;5.75;;;1.92;;
79706;SDS011;69200;53.612;-2.416;2023-08-06T07:42:18;8.07;;;1.80;;
79706;SDS011;69200;53.612;-2.416;2023-08-06T07:44:49;4.75;;;1.60;;
79706;SDS011;69200;53.612;-2.416;2023-08-06T07:47:24;5.50;;;1.60;;
79706;SDS011;69200;53.612;-2.416;2023-08-06T07:49:50;6.15;;;1.85;;
79706;SDS011;69200;53.612;-2.416;2023-08-06T07:52:15;5.43;;;1.58;;
79706;SDS011;69200;53.612;-2.416;2023-08-06T07:54:40;6.50;;;1.80;;
79706;SDS011;69200;53.612;-2.416;2023-08-06T07:57:06;8.40;;;2.33;;
79706;SDS011;69200;53.612;-2.416;2023-08-06T07:59:32;4.45;;;1.60;;
79706;SDS011;69200;53.612;-2.416;2023-08-06T08:01:57;4.50;;;1.70;;
79706;SDS011;69200;53.612;-2.416;2023-08-06T08:04:23;4.13;;;1.35;;
79706;SDS011;69200;53.612;-2.416;2023-08-06T08:06:48;4.50;;;1.58;;
79706;SDS011;69200;53.612;-2.416;2023-08-06T08:09:14;5.43;;;1.50;;
79706;SDS011;69200;53.612;-2.416;2023-08-06T08:11:40;4.72;;;1.95;;
79706;SDS011;69200;53.612;-2.416;2023-08-06T08:14:05;5.82;;;1.90;;
79706;SDS011;69200;53.612;-2.416;2023-08-06T08:16:31;4.10;;;1.42;;
79706;SDS011;69200;53.612;-2.416;2023-08-06T08:18:57;6.28;;;1.55;;
79706;SDS011;69200;53.612;-2.416;2023-08-06T08:21:22;4.80;;;1.42;;
79706;SDS011;69200;53.612;-2.416;2023-08-06T08:23:49;4.18;;;1.40;;
79706;SDS011;69200;53.612;-2.416;2023-08-06T08:26:15;4.38;;;1.52;;
79706;SDS011;69200;53.612;-2.416;2023-08-06T08:28:40;4.50;;;1.67;;
79706;SDS011;69200;53.612;-2.416;2023-08-06T08:31:07;4.03;;;1.40;;
79706;SDS011;69200;53.612;-2.416;2023-08-06T08:33:34;4.78;;;1.30;;
79706;SDS011;69200;53.612;-2.416;2023-08-06T08:35:59;4.72;;;1.40;;
79706;SDS011;69200;53.612;-2.416;2023-08-06T08:38:25;5.43;;;1.38;;
79706;SDS011;69200;53.612;-2.416;2023-08-06T08:40:51;3.58;;;1.60;;
79706;SDS011;69200;53.612;-2.416;2023-08-06T08:43:20;4.28;;;1.40;;
79706;SDS011;69200;53.612;-2.416;2023-08-06T08:45:46;3.85;;;1.35;;
79706;SDS011;69200;53.612;-2.416;2023-08-06T08:48:15;4.82;;;1.30;;
79706;SDS011;69200;53.612;-2.416;2023-08-06T08:50:42;5.43;;;1.20;;
79706;SDS011;69200;53.612;-2.416;2023-08-06T08:53:10;5.90;;;1.85;;
79706;SDS011;69200;53.612;-2.416;2023-08-06T08:55:36;4.13;;;1.42;;
79706;SDS011;69200;53.612;-2.416;2023-08-06T08:58:03;4.00;;;1.60;;
79706;SDS011;69200;53.612;-2.416;2023-08-06T09:00:28;4.97;;;1.40;;
79706;SDS011;69200;53.612;-2.416;2023-08-06T09:02:54;5.65;;;1.50;;
79706;SDS011;69200;53.612;-2.416;2023-08-06T09:05:22;5.13;;;1.33;;
79706;SDS011;69200;53.612;-2.416;2023-08-06T09:07:49;4.07;;;1.40;;
79706;SDS011;69200;53.612;-2.416;2023-08-06T09:10:17;5.45;;;1.40;;
79706;SDS011;69200;53.612;-2.416;2023-08-06T09:12:48;5.78;;;1.40;;
79706;SDS011;69200;53.612;-2.416;2023-08-06T09:15:16;4.55;;;1.13;;
79706;SDS011;69200;53.612;-2.416;2023-08-06T09:17:41;4.00;;;1.30;;
79706;SDS011;69200;53.612;-2.416;2023-08-06T09:20:10;4.20;;;1.50;;
79706;SDS011;69200;53.612;-2.416;2023-08-06T09:22:39;5.07;;;1.48;;
79706;SDS011;69200;53.612;-2.416;2023-08-06T09:25:06;3.63;;;1.23;;
79706;SDS011;69200;53.612;-2.416;2023-08-06T09:27:35;4.43;;;1.23;;
79706;SDS011;69200;53.612;-2.416;2023-08-06T09:30:04;4.07;;;1.30;;
79706;SDS011;69200;53.612;-2.416;2023-08-06T09:32:47;3.75;;;1.30;;
79706;SDS011;69200;53.612;-2.416;2023-08-06T09:37:43;4.85;;;1.52;;
79706;SDS011;69200;53.612;-2.416;2023-08-06T09:40:23;4.72;;;1.77;;
79706;SDS011;69200;53.612;-2.416;2023-08-06T09:42:50;4.30;;;1.38;;
79706;SDS011;69200;53.612;-2.416;2023-08-06T09:45:16;4.13;;;1.42;;
79706;SDS011;69200;53.612;-2.416;2023-08-06T09:47:41;4.18;;;1.33;;
79706;SDS011;69200;53.612;-2.416;2023-08-06T09:50:14;5.55;;;1.50;;
79706;SDS011;69200;53.612;-2.416;2023-08-06T09:52:42;4.38;;;1.35;;
79706;SDS011;69200;53.612;-2.416;2023-08-06T09:55:07;4.45;;;1.52;;
79706;SDS011;69200;53.612;-2.416;2023-08-06T09:57:35;3.67;;;1.27;;
79706;SDS011;69200;53.612;-2.416;2023-08-06T10:00:01;3.88;;;1.15;;
79706;SDS011;69200;53.612;-2.416;2023-08-06T10:02:27;5.22;;;1.40;;
79706;SDS011;69200;53.612;-2.416;2023-08-06T10:04:53;6.07;;;1.30;;
79706;SDS011;69200;53.612;-2.416;2023-08-06T10:07:21;4.75;;;1.23;;
79706;SDS011;69200;53.612;-2.416;2023-08-06T10:09:49;5.18;;;1.70;;
79706;SDS011;69200;53.612;-2.416;2023-08-06T10:12:14;3.90;;;1.40;;
79706;SDS011;69200;53.612;-2.416;2023-08-06T10:14:43;6.10;;;1.40;;
79706;SDS011;69200;53.612;-2.416;2023-08-06T10:17:10;7.25;;;1.20;;
79706;SDS011;69200;53.612;-2.416;2023-08-06T10:19:36;4.00;;;1.30;;
79706;SDS011;69200;53.612;-2.416;2023-08-06T10:24:59;6.90;;;1.80;;
79706;SDS011;69200;53.612;-2.416;2023-08-06T10:32:51;5.10;;;1.17;;
79706;SDS011;69200;53.612;-2.416;2023-08-06T10:41:03;4.90;;;1.40;;
79706;SDS011;69200;53.612;-2.416;2023-08-06T10:46:03;5.25;;;1.35;;
79706;SDS011;69200;53.612;-2.416;2023-08-06T10:48:35;5.65;;;1.83;;
79706;SDS011;69200;53.612;-2.416;2023-08-06T10:51:01;4.35;;;1.27;;
79706;SDS011;69200;53.612;-2.416;2023-08-06T10:53:27;3.70;;;1.42;;
79706;SDS011;69200;53.612;-2.416;2023-08-06T10:55:53;4.13;;;1.30;;
79706;SDS011;69200;53.612;-2.416;2023-08-06T10:58:18;3.85;;;1.10;;
79706;SDS011;69200;53.612;-2.416;2023-08-06T11:00:44;3.92;;;1.35;;
79706;SDS011;69200;53.612;-2.416;2023-08-06T11:03:10;2.78;;;0.90;;
79706;SDS011;69200;53.612;-2.416;2023-08-06T11:05:35;3.30;;;1.00;;
79706;SDS011;69200;53.612;-2.416;2023-08-06T11:08:01;3.17;;;1.00;;
79706;SDS011;69200;53.612;-2.416;2023-08-06T11:10:26;3.15;;;0.95;;
79706;SDS011;69200;53.612;-2.416;2023-08-06T11:12:52;3.00;;;1.00;;
79706;SDS011;69200;53.612;-2.416;2023-08-06T11:15:19;3.17;;;0.90;;
79706;SDS011;69200;53.612;-2.416;2023-08-06T11:17:45;3.28;;;1.00;;
79706;SDS011;69200;53.612;-2.416;2023-08-06T11:20:11;3.85;;;1.27;;
79706;SDS011;69200;53.612;-2.416;2023-08-06T11:22:37;2.60;;;0.90;;
79706;SDS011;69200;53.612;-2.416;2023-08-06T11:25:03;2.67;;;1.00;;
79706;SDS011;69200;53.612;-2.416;2023-08-06T11:27:30;3.70;;;1.08;;
79706;SDS011;69200;53.612;-2.416;2023-08-06T11:29:55;4.63;;;1.10;;
79706;SDS011;69200;53.612;-2.416;2023-08-06T11:32:21;3.58;;;1.00;;
79706;SDS011;69200;53.612;-2.416;2023-08-06T11:34:46;3.80;;;1.05;;
79706;SDS011;69200;53.612;-2.416;2023-08-06T11:37:11;3.28;;;0.90;;
79706;SDS011;69200;53.612;-2.416;2023-08-06T11:39:37;3.42;;;1.35;;
79706;SDS011;69200;53.612;-2.416;2023-08-06T11:42:04;4.80;;;1.55;;
79706;SDS011;69200;53.612;-2.416;2023-08-06T11:44:35;5.28;;;1.30;;
79706;SDS011;69200;53.612;-2.416;2023-08-06T11:47:02;3.83;;;1.17;;
79706;SDS011;69200;53.612;-2.416;2023-08-06T11:52:18;5.15;;;1.40;;
79706;SDS011;69200;53.612;-2.416;2023-08-06T11:54:49;5.03;;;1.50;;
79706;SDS011;69200;53.612;-2.416;2023-08-06T11:57:28;4.20;;;0.98;;
79706;SDS011;69200;53.612;-2.416;2023-08-06T12:02:23;3.97;;;1.27;;
79706;SDS011;69200;53.612;-2.416;2023-08-06T12:05:04;3.90;;;1.40;;
79706;SDS011;69200;53.612;-2.416;2023-08-06T12:07:37;4.63;;;1.20;;
79706;SDS011;69200;53.612;-2.416;2023-08-06T12:10:03;4.60;;;1.05;;
79706;SDS011;69200;53.612;-2.416;2023-08-06T12:12:29;3.95;;;1.25;;
79706;SDS011;69200;53.612;-2.416;2023-08-06T12:14:55;6.82;;;1.30;;
79706;SDS011;69200;53.612;-2.416;2023-08-06T12:17:21;5.70;;;1.30;;
79706;SDS011;69200;53.612;-2.416;2023-08-06T12:19:47;4.47;;;1.30;;
79706;SDS011;69200;53.612;-2.416;2023-08-06T12:22:13;4.32;;;1.02;;
79706;SDS011;69200;53.612;-2.416;2023-08-06T12:24:40;4.10;;;1.23;;
79706;SDS011;69200;53.612;-2.416;2023-08-06T12:27:06;4.95;;;1.30;;
79706;SDS011;69200;53.612;-2.416;2023-08-06T12:29:32;3.35;;;1.00;;
79706;SDS011;69200;53.612;-2.416;2023-08-06T12:31:57;4.18;;;1.30;;
79706;SDS011;69200;53.612;-2.416;2023-08-06T12:34:22;4.88;;;1.10;;
79706;SDS011;69200;53.612;-2.416;2023-08-06T12:36:48;3.67;;;1.48;;
79706;SDS011;69200;53.612;-2.416;2023-08-06T12:39:13;4.00;;;1.25;;
79706;SDS011;69200;53.612;-2.416;2023-08-06T12:41:38;4.68;;;1.35;;
79706;SDS011;69200;53.612;-2.416;2023-08-06T12:44:04;4.45;;;1.42;;
79706;SDS011;69200;53.612;-2.416;2023-08-06T12:46:29;4.72;;;1.60;;
79706;SDS011;69200;53.612;-2.416;2023-08-06T12:48:55;6.00;;;1.38;;
79706;SDS011;69200;53.612;-2.416;2023-08-06T12:51:22;4.82;;;1.30;;
79706;SDS011;69200;53.612;-2.416;2023-08-06T12:53:48;6.28;;;1.80;;
79706;SDS011;69200;53.612;-2.416;2023-08-06T12:56:14;3.72;;;1.48;;
79706;SDS011;69200;53.612;-2.416;2023-08-06T12:58:40;3.13;;;1.02;;
79706;SDS011;69200;53.612;-2.416;2023-08-06T13:01:06;4.35;;;1.20;;
79706;SDS011;69200;53.612;-2.416;2023-08-06T13:03:32;4.07;;;1.20;;
79706;SDS011;69200;53.612;-2.416;2023-08-06T13:05:57;3.35;;;1.00;;
79706;SDS011;69200;53.612;-2.416;2023-08-06T13:08:23;4.30;;;1.15;;
79706;SDS011;69200;53.612;-2.416;2023-08-06T13:10:48;3.70;;;1.13;;
79706;SDS011;69200;53.612;-2.416;2023-08-06T13:13:14;3.42;;;1.10;;
79706;SDS011;69200;53.612;-2.416;2023-08-06T13:15:39;4.10;;;1.08;;
79706;SDS011;69200;53.612;-2.416;2023-08-06T13:18:05;3.47;;;1.10;;
79706;SDS011;69200;53.612;-2.416;2023-08-06T13:20:31;5.25;;;1.10;;
79706;SDS011;69200;53.612;-2.416;2023-08-06T13:22:57;4.85;;;1.40;;
79706;SDS011;69200;53.612;-2.416;2023-08-06T13:25:24;4.65;;;1.40;;
79706;SDS011;69200;53.612;-2.416;2023-08-06T13:27:50;4.55;;;1.27;;
79706;SDS011;69200;53.612;-2.416;2023-08-06T13:30:15;3.42;;;1.15;;
79706;SDS011;69200;53.612;-2.416;2023-08-06T13:32:42;4.55;;;1.13;;
79706;SDS011;69200;53.612;-2.416;2023-08-06T13:35:08;5.55;;;1.60;;
79706;SDS011;69200;53.612;-2.416;2023-08-06T13:37:34;3.85;;;1.10;;
79706;SDS011;69200;53.612;-2.416;2023-08-06T13:39:59;3.42;;;1.00;;
79706;SDS011;69200;53.612;-2.416;2023-08-06T13:42:24;2.60;;;0.93;;
79706;SDS011;69200;53.612;-2.416;2023-08-06T13:44:50;3.60;;;1.13;;
79706;SDS011;69200;53.612;-2.416;2023-08-06T13:47:15;4.10;;;1.08;;
79706;SDS011;69200;53.612;-2.416;2023-08-06T13:49:40;3.80;;;1.08;;
79706;SDS011;69200;53.612;-2.416;2023-08-06T13:52:06;3.83;;;1.20;;
79706;SDS011;69200;53.612;-2.416;2023-08-06T13:54:31;4.32;;;1.10;;
79706;SDS011;69200;53.612;-2.416;2023-08-06T13:56:57;4.68;;;1.52;;
79706;SDS011;69200;53.612;-2.416;2023-08-06T13:59:22;3.97;;;1.05;;
79706;SDS011;69200;53.612;-2.416;2023-08-06T14:01:49;3.30;;;0.95;;
79706;SDS011;69200;53.612;-2.416;2023-08-06T14:04:15;3.38;;;1.00;;
79706;SDS011;69200;53.612;-2.416;2023-08-06T14:06:40;4.25;;;1.20;;
79706;SDS011;69200;53.612;-2.416;2023-08-06T14:09:06;2.63;;;0.90;;
79706;SDS011;69200;53.612;-2.416;2023-08-06T14:11:32;6.28;;;1.00;;
79706;SDS011;69200;53.612;-2.416;2023-08-06T14:13:58;4.38;;;1.00;;
79706;SDS011;69200;53.612;-2.416;2023-08-06T14:16:25;2.70;;;0.90;;
79706;SDS011;69200;53.612;-2.416;2023-08-06T14:18:50;3.28;;;0.75;;
79706;SDS011;69200;53.612;-2.416;2023-08-06T14:21:15;2.47;;;0.88;;
79706;SDS011;69200;53.612;-2.416;2023-08-06T14:23:41;3.75;;;0.80;;
79706;SDS011;69200;53.612;-2.416;2023-08-06T14:26:06;4.25;;;1.00;;
79706;SDS011;69200;53.612;-2.416;2023-08-06T14:28:33;4.95;;;1.23;;
79706;SDS011;69200;53.612;-2.416;2023-08-06T14:30:58;1.13;;;0.50;;
79706;SDS011;69200;53.612;-2.416;2023-08-06T14:33:24;2.75;;;0.80;;
79706;SDS011;69200;53.612;-2.416;2023-08-06T14:35:49;2.55;;;0.63;;
79706;SDS011;69200;53.612;-2.416;2023-08-06T14:38:15;2.55;;;0.75;;
79706;SDS011;69200;53.612;-2.416;2023-08-06T14:40:40;3.75;;;0.68;;
79706;SDS011;69200;53.612;-2.416;2023-08-06T14:43:06;3.60;;;0.90;;
79706;SDS011;69200;53.612;-2.416;2023-08-06T14:45:31;3.42;;;0.90;;
79706;SDS011;69200;53.612;-2.416;2023-08-06T14:47:57;5.32;;;1.00;;
79706;SDS011;69200;53.612;-2.416;2023-08-06T14:50:22;3.60;;;0.80;;
79706;SDS011;69200;53.612;-2.416;2023-08-06T14:52:48;3.92;;;1.45;;
79706;SDS011;69200;53.612;-2.416;2023-08-06T14:55:23;3.95;;;0.93;;